createdAt,value
2016-10-07T00:00:21.102Z,0
2016-10-07T00:01:02.749Z,0
2016-10-07T00:01:44.467Z,0
2016-10-07T00:02:26.191Z,0
2016-10-07T00:03:07.764Z,0
2016-10-07T00:03:49.516Z,0
2016-10-07T00:04:31.176Z,0
2016-10-07T00:05:12.967Z,0
2016-10-07T00:05:54.491Z,0
2016-10-07T00:08:30.746Z,0
2016-10-07T00:09:12.397Z,0
2016-10-07T00:09:54.082Z,0
2016-10-07T00:10:35.807Z,0
2016-10-07T00:11:17.561Z,0
2016-10-07T00:11:59.228Z,0
2016-10-07T00:12:40.953Z,0
2016-10-07T00:13:22.754Z,0
2016-10-07T00:14:04.510Z,0
2016-10-07T00:14:46.252Z,0
2016-10-07T00:15:27.989Z,0
2016-10-07T00:16:09.800Z,0
2016-10-07T00:16:51.585Z,0
2016-10-07T00:17:33.377Z,0
2016-10-07T00:18:15.060Z,0
2016-10-07T00:18:56.778Z,0
2016-10-07T00:19:38.587Z,0
2016-10-07T00:20:20.163Z,0
2016-10-07T00:21:01.838Z,0
2016-10-07T00:23:01.987Z,0
2016-10-07T00:23:43.690Z,0
2016-10-07T00:24:25.455Z,0
2016-10-07T00:25:07.108Z,0
2016-10-07T00:25:48.836Z,0
2016-10-07T00:26:30.317Z,0
2016-10-07T00:27:12.101Z,0
2016-10-07T00:27:53.937Z,0
2016-10-07T00:28:35.628Z,0
2016-10-07T00:29:17.371Z,0
2016-10-07T00:31:53.810Z,0
2016-10-07T00:34:25.001Z,0
2016-10-07T00:35:06.754Z,0
2016-10-07T00:39:16.714Z,0
2016-10-07T00:39:58.363Z,0
2016-10-07T00:40:40.129Z,0
2016-10-07T00:41:21.902Z,0
2016-10-07T00:42:03.671Z,0
2016-10-07T00:42:46.004Z,0
2016-10-07T00:43:27.911Z,0
2016-10-07T00:44:09.638Z,0
2016-10-07T00:44:51.390Z,0
2016-10-07T00:45:33.138Z,0
2016-10-07T00:46:14.864Z,0
2016-10-07T00:46:56.543Z,0
2016-10-07T00:47:38.279Z,0
2016-10-07T00:48:19.971Z,0
2016-10-07T00:52:30.149Z,0
2016-10-07T00:53:11.867Z,0
2016-10-07T00:53:53.617Z,0
2016-10-07T00:54:35.297Z,0
2016-10-07T00:55:17.011Z,0
2016-10-07T00:55:58.724Z,0
2016-10-07T00:56:40.178Z,0
2016-10-07T00:57:20.714Z,0
2016-10-07T00:58:01.255Z,0
2016-10-07T00:58:41.796Z,0
2016-10-07T00:59:22.338Z,0
2016-10-07T01:00:02.887Z,0
2016-10-07T01:00:43.408Z,0
2016-10-07T01:01:23.952Z,0
2016-10-07T01:02:04.479Z,0
2016-10-07T01:02:45.019Z,0
2016-10-07T01:03:25.559Z,0
2016-10-07T01:04:06.101Z,0
2016-10-07T01:04:46.640Z,0
2016-10-07T01:05:27.182Z,0
2016-10-07T01:06:07.726Z,0
2016-10-07T01:06:48.259Z,0
2016-10-07T01:07:28.785Z,0
2016-10-07T01:08:09.319Z,0
2016-10-07T01:08:49.858Z,0
2016-10-07T01:09:30.405Z,0
2016-10-07T01:10:10.945Z,0
2016-10-07T01:10:51.488Z,0
2016-10-07T01:11:32.027Z,0
2016-10-07T01:12:12.565Z,0
2016-10-07T01:12:53.099Z,0
2016-10-07T01:13:33.619Z,0
2016-10-07T01:14:14.154Z,0
2016-10-07T01:14:54.702Z,0
2016-10-07T01:15:35.246Z,0
2016-10-07T01:16:15.784Z,0
2016-10-07T01:16:56.327Z,0
2016-10-07T01:17:36.874Z,0
2016-10-07T01:18:17.419Z,0
2016-10-07T01:18:57.980Z,0
2016-10-07T01:19:38.532Z,0
2016-10-07T01:20:19.069Z,0
2016-10-07T01:20:59.620Z,0
2016-10-07T01:21:40.158Z,0
2016-10-07T01:22:20.701Z,0
2016-10-07T01:23:01.227Z,0
2016-10-07T01:23:41.765Z,0
2016-10-07T01:24:22.306Z,0
2016-10-07T01:25:02.842Z,0
2016-10-07T01:25:43.377Z,0
2016-10-07T01:26:23.922Z,0
2016-10-07T01:27:04.462Z,0
2016-10-07T01:27:44.981Z,0
2016-10-07T01:28:25.508Z,0
2016-10-07T01:29:06.064Z,0
2016-10-07T01:29:46.612Z,0
2016-10-07T01:30:27.153Z,0
2016-10-07T01:31:07.695Z,0
2016-10-07T01:31:48.239Z,0
2016-10-07T01:32:28.778Z,0
2016-10-07T01:33:09.319Z,0
2016-10-07T01:33:49.857Z,0
2016-10-07T01:34:30.394Z,0
2016-10-07T01:35:10.941Z,0
2016-10-07T01:35:51.482Z,0
2016-10-07T01:36:32.023Z,0
2016-10-07T01:37:12.573Z,0
2016-10-07T01:37:53.124Z,0
2016-10-07T01:38:33.663Z,0
2016-10-07T01:39:14.191Z,0
2016-10-07T01:39:54.729Z,0
2016-10-07T01:40:35.265Z,0
2016-10-07T01:41:15.798Z,0
2016-10-07T01:41:56.335Z,0
2016-10-07T01:42:36.879Z,0
2016-10-07T01:43:17.429Z,0
2016-10-07T01:43:57.974Z,0
2016-10-07T01:44:38.503Z,0
2016-10-07T01:45:19.041Z,0
2016-10-07T01:45:59.573Z,0
2016-10-07T01:46:40.106Z,0
2016-10-07T01:47:20.651Z,0
2016-10-07T01:48:01.182Z,0
2016-10-07T01:48:41.732Z,0
2016-10-07T01:49:22.273Z,0
2016-10-07T01:50:02.813Z,0
2016-10-07T01:50:43.359Z,0
2016-10-07T01:51:23.898Z,0
2016-10-07T01:52:04.436Z,0
2016-10-07T01:52:44.975Z,0
2016-10-07T01:53:25.516Z,0
2016-10-07T01:54:06.056Z,0
2016-10-07T01:54:46.599Z,0
2016-10-07T01:55:27.143Z,0
2016-10-07T01:56:07.686Z,0
2016-10-07T01:56:48.228Z,0
2016-10-07T01:57:28.770Z,0
2016-10-07T01:58:09.313Z,0
2016-10-07T01:58:49.855Z,0
2016-10-07T01:59:30.404Z,0
2016-10-07T02:00:10.935Z,0
2016-10-07T02:00:51.477Z,0
2016-10-07T02:01:32.019Z,0
2016-10-07T02:02:12.559Z,0
2016-10-07T02:02:53.099Z,0
2016-10-07T02:03:33.643Z,0
2016-10-07T02:04:14.187Z,0
2016-10-07T02:04:54.730Z,0
2016-10-07T02:05:35.275Z,0
2016-10-07T02:06:15.816Z,0
2016-10-07T02:06:56.367Z,0
2016-10-07T02:07:36.914Z,0
2016-10-07T02:08:17.455Z,0
2016-10-07T02:08:57.993Z,0
2016-10-07T02:09:38.535Z,0
2016-10-07T02:10:19.071Z,0
2016-10-07T02:10:59.611Z,0
2016-10-07T02:11:40.154Z,0
2016-10-07T02:12:20.702Z,0
2016-10-07T02:13:01.246Z,0
2016-10-07T02:13:41.782Z,0
2016-10-07T02:14:22.321Z,0
2016-10-07T02:15:02.868Z,0
2016-10-07T02:15:43.399Z,0
2016-10-07T02:16:23.936Z,0
2016-10-07T02:17:04.481Z,0
2016-10-07T02:17:45.020Z,0
2016-10-07T02:18:25.562Z,0
2016-10-07T02:19:06.108Z,0
2016-10-07T02:19:46.649Z,0
2016-10-07T02:20:27.178Z,0
2016-10-07T02:21:07.724Z,0
2016-10-07T02:21:48.266Z,0
2016-10-07T02:22:28.812Z,0
2016-10-07T02:23:09.336Z,0
2016-10-07T02:23:49.880Z,0
2016-10-07T02:24:30.425Z,0
2016-10-07T02:25:10.959Z,0
2016-10-07T02:25:51.500Z,0
2016-10-07T02:26:32.044Z,0
2016-10-07T02:27:12.594Z,0
2016-10-07T02:27:53.131Z,0
2016-10-07T02:28:33.672Z,0
2016-10-07T02:29:14.202Z,0
2016-10-07T02:29:54.741Z,0
2016-10-07T02:30:35.282Z,0
2016-10-07T02:31:15.826Z,0
2016-10-07T02:31:56.369Z,0
2016-10-07T02:32:36.908Z,0
2016-10-07T02:33:17.440Z,0
2016-10-07T02:33:57.966Z,0
2016-10-07T02:34:38.508Z,0
2016-10-07T02:35:19.045Z,0
2016-10-07T02:35:59.587Z,0
2016-10-07T02:36:40.128Z,0
2016-10-07T02:37:20.666Z,0
2016-10-07T02:38:01.209Z,0
2016-10-07T02:38:41.755Z,0
2016-10-07T02:39:22.297Z,0
2016-10-07T02:40:02.842Z,0
2016-10-07T02:40:43.379Z,0
2016-10-07T02:41:23.923Z,0
2016-10-07T02:42:04.453Z,0
2016-10-07T02:42:44.993Z,0
2016-10-07T02:43:25.537Z,0
2016-10-07T02:44:06.085Z,0
2016-10-07T02:44:46.625Z,0
2016-10-07T02:45:27.161Z,0
2016-10-07T02:46:07.697Z,0
2016-10-07T02:46:48.237Z,0
2016-10-07T02:47:28.771Z,0
2016-10-07T02:48:09.309Z,0
2016-10-07T02:48:49.848Z,0
2016-10-07T02:49:30.388Z,0
2016-10-07T02:50:10.929Z,0
2016-10-07T02:50:51.464Z,0
2016-10-07T02:51:32.006Z,0
2016-10-07T02:52:12.554Z,0
2016-10-07T02:52:53.082Z,0
2016-10-07T02:53:33.625Z,0
2016-10-07T02:54:14.155Z,0
2016-10-07T02:54:54.698Z,0
2016-10-07T02:55:35.243Z,0
2016-10-07T02:56:15.783Z,0
2016-10-07T02:56:56.323Z,0
2016-10-07T02:57:36.861Z,0
2016-10-07T02:58:17.398Z,0
2016-10-07T02:58:57.949Z,0
2016-10-07T02:59:38.489Z,0
2016-10-07T03:00:19.021Z,0
2016-10-07T03:00:59.569Z,0
2016-10-07T03:01:40.101Z,0
2016-10-07T03:02:20.639Z,0
2016-10-07T03:03:01.175Z,0
2016-10-07T03:03:41.716Z,0
2016-10-07T03:04:22.264Z,0
2016-10-07T03:05:02.802Z,0
2016-10-07T03:05:43.333Z,0
2016-10-07T03:06:23.873Z,0
2016-10-07T03:07:04.415Z,0
2016-10-07T03:07:44.957Z,0
2016-10-07T03:08:25.508Z,0
2016-10-07T03:09:06.056Z,0
2016-10-07T03:09:46.600Z,0
2016-10-07T03:10:27.144Z,0
2016-10-07T03:11:07.685Z,0
2016-10-07T03:11:48.223Z,0
2016-10-07T03:12:28.775Z,0
2016-10-07T03:13:09.313Z,0
2016-10-07T03:13:49.853Z,0
2016-10-07T03:14:30.383Z,0
2016-10-07T03:15:10.919Z,0
2016-10-07T03:15:51.465Z,0
2016-10-07T03:16:32.001Z,0
2016-10-07T03:17:12.543Z,0
2016-10-07T03:17:53.088Z,0
2016-10-07T03:18:33.628Z,0
2016-10-07T03:19:14.168Z,0
2016-10-07T03:19:54.698Z,0
2016-10-07T03:20:35.238Z,0
2016-10-07T03:21:15.774Z,0
2016-10-07T03:21:56.318Z,0
2016-10-07T03:22:36.856Z,0
2016-10-07T03:23:17.407Z,0
2016-10-07T03:23:57.947Z,0
2016-10-07T03:24:38.483Z,0
2016-10-07T03:25:19.026Z,0
2016-10-07T03:25:59.572Z,0
2016-10-07T03:26:40.100Z,0
2016-10-07T03:27:20.645Z,0
2016-10-07T03:28:01.185Z,0
2016-10-07T03:28:41.729Z,0
2016-10-07T03:29:22.277Z,0
2016-10-07T03:30:02.826Z,0
2016-10-07T03:30:43.364Z,0
2016-10-07T03:31:23.919Z,0
2016-10-07T03:32:04.448Z,0
2016-10-07T03:32:44.998Z,0
2016-10-07T03:33:25.547Z,0
2016-10-07T03:34:06.094Z,0
2016-10-07T03:34:46.626Z,0
2016-10-07T03:35:27.163Z,0
2016-10-07T03:36:07.695Z,0
2016-10-07T03:36:48.237Z,0
2016-10-07T03:37:28.775Z,0
2016-10-07T03:38:09.316Z,0
2016-10-07T03:38:49.850Z,0
2016-10-07T03:39:30.398Z,0
2016-10-07T03:40:10.942Z,0
2016-10-07T03:40:51.469Z,0
2016-10-07T03:41:32.008Z,0
2016-10-07T03:42:12.550Z,0
2016-10-07T03:42:53.089Z,0
2016-10-07T03:43:33.637Z,0
2016-10-07T03:44:14.178Z,0
2016-10-07T03:44:54.707Z,0
2016-10-07T03:45:35.256Z,0
2016-10-07T03:46:15.799Z,0
2016-10-07T03:46:56.321Z,0
2016-10-07T03:47:36.866Z,0
2016-10-07T03:48:17.414Z,0
2016-10-07T03:48:57.955Z,0
2016-10-07T03:49:38.505Z,0
2016-10-07T03:50:19.052Z,0
2016-10-07T03:50:59.595Z,0
2016-10-07T03:51:40.139Z,0
2016-10-07T03:52:20.672Z,0
2016-10-07T03:53:01.205Z,0
2016-10-07T03:53:41.743Z,0
2016-10-07T03:54:22.281Z,0
2016-10-07T03:55:02.824Z,0
2016-10-07T03:55:43.366Z,0
2016-10-07T03:56:23.911Z,0
2016-10-07T03:57:04.449Z,0
2016-10-07T03:57:44.990Z,0
2016-10-07T03:58:25.534Z,0
2016-10-07T03:59:06.075Z,0
2016-10-07T03:59:46.623Z,0
2016-10-07T04:00:27.152Z,0
2016-10-07T04:01:07.708Z,0
2016-10-07T04:01:48.247Z,0
2016-10-07T04:02:28.779Z,0
2016-10-07T04:03:09.305Z,0
2016-10-07T04:03:49.854Z,0
2016-10-07T04:04:30.396Z,0
2016-10-07T04:05:10.937Z,0
2016-10-07T04:05:51.485Z,0
2016-10-07T04:06:32.025Z,0
2016-10-07T04:07:12.575Z,0
2016-10-07T04:07:53.112Z,0
2016-10-07T04:08:33.653Z,0
2016-10-07T04:09:14.185Z,0
2016-10-07T04:09:54.725Z,0
2016-10-07T04:10:35.268Z,0
2016-10-07T04:11:15.813Z,0
2016-10-07T04:11:56.354Z,0
2016-10-07T04:12:36.894Z,0
2016-10-07T04:13:17.434Z,0
2016-10-07T04:13:57.979Z,0
2016-10-07T04:14:38.513Z,0
2016-10-07T04:15:19.055Z,0
2016-10-07T04:15:59.616Z,0
2016-10-07T04:16:40.171Z,0
2016-10-07T04:17:20.693Z,0
2016-10-07T04:18:01.250Z,0
2016-10-07T04:18:41.793Z,0
2016-10-07T04:19:22.339Z,0
2016-10-07T04:20:02.879Z,0
2016-10-07T04:20:43.416Z,0
2016-10-07T04:21:23.966Z,0
2016-10-07T04:22:04.495Z,0
2016-10-07T04:22:45.034Z,0
2016-10-07T04:23:25.584Z,0
2016-10-07T04:24:06.103Z,0
2016-10-07T04:24:46.652Z,0
2016-10-07T04:25:27.197Z,0
2016-10-07T04:26:07.744Z,0
2016-10-07T04:26:48.283Z,0
2016-10-07T04:27:28.828Z,0
2016-10-07T04:28:09.352Z,0
2016-10-07T04:28:49.865Z,0
2016-10-07T04:29:30.409Z,0
2016-10-07T04:30:10.950Z,0
2016-10-07T04:30:51.499Z,0
2016-10-07T04:31:32.040Z,0
2016-10-07T04:32:12.597Z,0
2016-10-07T04:32:53.145Z,0
2016-10-07T04:33:33.683Z,0
2016-10-07T04:34:14.228Z,0
2016-10-07T04:34:54.762Z,0
2016-10-07T04:35:35.281Z,0
2016-10-07T04:36:15.825Z,0
2016-10-07T04:36:56.513Z,0
2016-10-07T04:37:37.058Z,0
2016-10-07T04:38:17.577Z,0
2016-10-07T04:38:58.116Z,0
2016-10-07T04:39:38.646Z,0
2016-10-07T04:40:19.202Z,0
2016-10-07T04:40:59.752Z,0
2016-10-07T04:41:40.289Z,0
2016-10-07T04:42:20.819Z,0
2016-10-07T04:43:01.365Z,0
2016-10-07T04:43:41.894Z,0
2016-10-07T04:44:22.434Z,0
2016-10-07T04:45:02.972Z,0
2016-10-07T04:45:43.512Z,0
2016-10-07T04:46:24.054Z,0
2016-10-07T04:47:04.601Z,0
2016-10-07T04:47:45.146Z,0
2016-10-07T04:48:25.691Z,0
2016-10-07T04:49:06.218Z,0
2016-10-07T04:49:46.781Z,0
2016-10-07T04:50:27.315Z,0
2016-10-07T04:51:07.860Z,0
2016-10-07T04:51:48.408Z,0
2016-10-07T04:52:28.939Z,0
2016-10-07T04:53:09.472Z,0
2016-10-07T04:53:50.021Z,0
2016-10-07T04:54:30.558Z,0
2016-10-07T04:55:11.092Z,0
2016-10-07T04:55:51.629Z,0
2016-10-07T04:56:32.177Z,0
2016-10-07T04:57:12.726Z,0
2016-10-07T04:57:53.249Z,0
2016-10-07T04:58:33.785Z,0
2016-10-07T04:59:14.316Z,0
2016-10-07T04:59:54.848Z,0
2016-10-07T05:00:35.384Z,0
2016-10-07T05:01:15.925Z,0
2016-10-07T05:01:56.467Z,0
2016-10-07T05:02:37.007Z,0
2016-10-07T05:03:17.547Z,0
2016-10-07T05:03:58.089Z,0
2016-10-07T05:04:38.631Z,0
2016-10-07T05:05:19.169Z,0
2016-10-07T05:05:59.708Z,0
2016-10-07T05:06:40.246Z,0
2016-10-07T05:07:20.785Z,0
2016-10-07T05:08:01.318Z,0
2016-10-07T05:08:41.852Z,0
2016-10-07T05:09:22.386Z,0
2016-10-07T05:10:02.925Z,0
2016-10-07T05:10:43.472Z,0
2016-10-07T05:11:24.011Z,0
2016-10-07T05:12:04.552Z,0
2016-10-07T05:12:45.089Z,4
2016-10-07T05:13:25.633Z,4
2016-10-07T05:14:06.171Z,0
2016-10-07T05:14:46.702Z,0
2016-10-07T05:15:27.242Z,4
2016-10-07T05:16:07.770Z,4
2016-10-07T05:16:48.327Z,4
2016-10-07T05:17:28.860Z,4
2016-10-07T05:18:09.433Z,4
2016-10-07T05:18:49.981Z,4
2016-10-07T05:19:30.523Z,4
2016-10-07T05:20:11.058Z,4
2016-10-07T05:20:51.598Z,8
2016-10-07T05:21:32.138Z,8
2016-10-07T05:22:12.681Z,8
2016-10-07T05:22:53.214Z,8
2016-10-07T05:23:33.756Z,12
2016-10-07T05:24:14.298Z,16
2016-10-07T05:24:54.837Z,16
2016-10-07T05:25:35.383Z,16
2016-10-07T05:26:15.913Z,20
2016-10-07T05:26:56.462Z,20
2016-10-07T05:27:37.004Z,24
2016-10-07T05:28:17.537Z,24
2016-10-07T05:28:58.070Z,28
2016-10-07T05:29:38.612Z,32
2016-10-07T05:30:19.149Z,36
2016-10-07T05:30:59.692Z,40
2016-10-07T05:31:40.211Z,48
2016-10-07T05:32:20.761Z,48
2016-10-07T05:33:01.296Z,52
2016-10-07T05:33:41.828Z,60
2016-10-07T05:34:22.371Z,64
2016-10-07T05:35:02.916Z,68
2016-10-07T05:35:43.455Z,72
2016-10-07T05:36:23.996Z,80
2016-10-07T05:37:04.539Z,88
2016-10-07T05:37:45.087Z,96
2016-10-07T05:38:25.633Z,104
2016-10-07T05:39:06.165Z,112
2016-10-07T05:39:46.712Z,120
2016-10-07T05:40:27.266Z,128
2016-10-07T05:41:07.804Z,136
2016-10-07T05:41:48.336Z,148
2016-10-07T05:42:28.877Z,156
2016-10-07T05:43:09.410Z,164
2016-10-07T05:43:49.952Z,176
2016-10-07T05:44:30.548Z,184
2016-10-07T05:45:11.097Z,196
2016-10-07T05:45:51.638Z,200
2016-10-07T05:46:32.183Z,208
2016-10-07T05:47:12.731Z,216
2016-10-07T05:47:53.273Z,220
2016-10-07T05:48:33.817Z,232
2016-10-07T05:49:14.356Z,244
2016-10-07T05:49:54.909Z,252
2016-10-07T05:50:35.475Z,260
2016-10-07T05:51:15.976Z,264
2016-10-07T05:51:56.510Z,268
2016-10-07T05:52:37.055Z,268
2016-10-07T05:53:17.574Z,264
2016-10-07T05:53:58.117Z,256
2016-10-07T05:54:38.645Z,256
2016-10-07T05:55:19.259Z,256
2016-10-07T05:55:59.812Z,256
2016-10-07T05:56:40.345Z,264
2016-10-07T05:57:20.889Z,276
2016-10-07T05:58:01.429Z,288
2016-10-07T05:58:42.000Z,304
2016-10-07T05:59:22.547Z,320
2016-10-07T06:00:03.077Z,340
2016-10-07T06:00:43.631Z,364
2016-10-07T06:01:24.176Z,384
2016-10-07T06:02:04.778Z,412
2016-10-07T06:04:34.210Z,480
2016-10-07T06:05:14.746Z,484
2016-10-07T06:05:55.272Z,476
2016-10-07T06:06:35.814Z,472
2016-10-07T06:07:16.352Z,480
2016-10-07T06:07:56.891Z,500
2016-10-07T06:08:37.436Z,508
2016-10-07T06:09:17.983Z,512
2016-10-07T06:09:58.500Z,516
2016-10-07T06:10:39.056Z,524
2016-10-07T06:11:19.595Z,544
2016-10-07T06:12:00.146Z,560
2016-10-07T06:12:40.695Z,576
2016-10-07T06:13:21.234Z,580
2016-10-07T06:14:01.761Z,584
2016-10-07T06:14:42.300Z,584
2016-10-07T06:15:22.840Z,584
2016-10-07T06:16:03.393Z,588
2016-10-07T06:16:43.940Z,604
2016-10-07T06:17:24.495Z,620
2016-10-07T06:18:05.034Z,644
2016-10-07T06:18:45.586Z,664
2016-10-07T06:19:26.131Z,688
2016-10-07T06:20:06.675Z,704
2016-10-07T06:20:47.215Z,716
2016-10-07T06:21:27.753Z,716
2016-10-07T06:22:08.285Z,720
2016-10-07T06:22:48.820Z,712
2016-10-07T06:23:29.358Z,708
2016-10-07T06:24:09.904Z,716
2016-10-07T06:24:50.483Z,724
2016-10-07T06:25:31.016Z,720
2016-10-07T06:26:11.559Z,720
2016-10-07T06:26:52.098Z,728
2016-10-07T06:27:32.640Z,744
2016-10-07T06:28:13.178Z,772
2016-10-07T06:28:53.727Z,796
2016-10-07T06:29:34.265Z,820
2016-10-07T06:30:14.807Z,848
2016-10-07T06:30:55.342Z,880
2016-10-07T06:31:35.884Z,896
2016-10-07T06:32:16.424Z,908
2016-10-07T06:32:56.956Z,920
2016-10-07T06:33:37.501Z,936
2016-10-07T06:34:18.043Z,956
2016-10-07T06:34:58.580Z,988
2016-10-07T06:35:39.120Z,1020
2016-10-07T06:36:19.652Z,1044
2016-10-07T06:37:00.181Z,1048
2016-10-07T06:37:40.710Z,1044
2016-10-07T06:38:21.260Z,1032
2016-10-07T06:39:01.808Z,1016
2016-10-07T06:39:42.347Z,1004
2016-10-07T06:40:22.888Z,1000
2016-10-07T06:41:03.424Z,1008
2016-10-07T06:41:43.963Z,1016
2016-10-07T06:42:24.501Z,1048
2016-10-07T06:43:05.034Z,1092
2016-10-07T06:43:45.575Z,1124
2016-10-07T06:44:26.110Z,1156
2016-10-07T06:45:06.630Z,1188
2016-10-07T06:45:47.174Z,1176
2016-10-07T06:46:27.721Z,1132
2016-10-07T06:47:08.255Z,1072
2016-10-07T06:47:48.809Z,1004
2016-10-07T06:48:29.339Z,956
2016-10-07T06:49:09.874Z,928
2016-10-07T06:49:50.414Z,916
2016-10-07T06:50:30.959Z,912
2016-10-07T06:51:11.502Z,916
2016-10-07T06:51:52.046Z,920
2016-10-07T06:52:32.582Z,920
2016-10-07T06:53:13.130Z,916
2016-10-07T06:53:53.653Z,920
2016-10-07T06:54:34.191Z,920
2016-10-07T06:55:14.729Z,908
2016-10-07T06:55:55.277Z,896
2016-10-07T06:56:35.821Z,884
2016-10-07T06:57:16.355Z,880
2016-10-07T06:57:56.886Z,880
2016-10-07T06:58:37.428Z,876
2016-10-07T06:59:17.968Z,880
2016-10-07T06:59:58.484Z,904
2016-10-07T07:00:39.028Z,920
2016-10-07T07:01:19.575Z,932
2016-10-07T07:02:00.119Z,964
2016-10-07T07:02:40.657Z,988
2016-10-07T07:03:21.195Z,1028
2016-10-07T07:04:01.741Z,1092
2016-10-07T07:04:42.278Z,1156
2016-10-07T07:05:22.823Z,1176
2016-10-07T07:06:03.355Z,1192
2016-10-07T07:06:43.881Z,1260
2016-10-07T07:07:24.433Z,1316
2016-10-07T07:08:04.973Z,1328
2016-10-07T07:08:45.522Z,1296
2016-10-07T07:09:26.061Z,1248
2016-10-07T07:10:06.602Z,1232
2016-10-07T07:10:47.139Z,1272
2016-10-07T07:11:27.691Z,1360
2016-10-07T07:12:08.222Z,1452
2016-10-07T07:12:48.758Z,1456
2016-10-07T07:13:29.297Z,1448
2016-10-07T07:14:09.835Z,1444
2016-10-07T07:14:50.378Z,1464
2016-10-07T07:15:30.918Z,1508
2016-10-07T07:16:11.458Z,1544
2016-10-07T07:16:52.003Z,1568
2016-10-07T07:17:32.535Z,1532
2016-10-07T07:18:13.072Z,1492
2016-10-07T07:18:53.626Z,1464
2016-10-07T07:19:34.167Z,1480
2016-10-07T07:20:14.704Z,1488
2016-10-07T07:20:55.247Z,1504
2016-10-07T07:21:35.795Z,1568
2016-10-07T07:22:16.344Z,1652
2016-10-07T07:22:56.885Z,1744
2016-10-07T07:23:37.426Z,1900
2016-10-07T07:24:17.964Z,2080
2016-10-07T07:24:58.513Z,2248
2016-10-07T07:25:39.064Z,2512
2016-10-07T07:26:19.607Z,2872
2016-10-07T07:27:00.164Z,3196
2016-10-07T07:27:40.697Z,3440
2016-10-07T07:28:21.233Z,3620
2016-10-07T07:29:01.765Z,3728
2016-10-07T07:29:42.310Z,3740
2016-10-07T07:30:22.857Z,3684
2016-10-07T07:31:03.402Z,3596
2016-10-07T07:31:43.948Z,3456
2016-10-07T07:32:24.474Z,3240
2016-10-07T07:33:05.022Z,2976
2016-10-07T07:33:45.549Z,2792
2016-10-07T07:34:26.086Z,2744
2016-10-07T07:35:06.628Z,2736
2016-10-07T07:35:47.161Z,2692
2016-10-07T07:36:27.708Z,2660
2016-10-07T07:37:08.248Z,2704
2016-10-07T07:37:48.778Z,2820
2016-10-07T07:38:29.323Z,2984
2016-10-07T07:39:09.870Z,3128
2016-10-07T07:39:50.405Z,3260
2016-10-07T07:40:30.943Z,3356
2016-10-07T07:41:11.487Z,3388
2016-10-07T07:41:52.025Z,3360
2016-10-07T07:42:32.568Z,3228
2016-10-07T07:43:13.122Z,2964
2016-10-07T07:43:53.666Z,2744
2016-10-07T07:44:34.214Z,2688
2016-10-07T07:45:14.758Z,2716
2016-10-07T07:45:55.310Z,2816
2016-10-07T07:46:35.851Z,2988
2016-10-07T07:47:16.386Z,3164
2016-10-07T07:47:56.934Z,3260
2016-10-07T07:48:37.472Z,3304
2016-10-07T07:49:18.020Z,3276
2016-10-07T07:49:58.556Z,3176
2016-10-07T07:50:39.092Z,3092
2016-10-07T07:51:19.635Z,2956
2016-10-07T07:52:00.174Z,3060
2016-10-07T07:52:40.716Z,3416
2016-10-07T07:53:21.256Z,3724
2016-10-07T07:54:01.796Z,3932
2016-10-07T07:54:42.324Z,3896
2016-10-07T07:55:22.859Z,3872
2016-10-07T07:56:03.409Z,4160
2016-10-07T07:56:43.949Z,4508
2016-10-07T07:57:24.490Z,4728
2016-10-07T07:58:05.031Z,4932
2016-10-07T07:58:45.567Z,4936
2016-10-07T07:59:26.099Z,4796
2016-10-07T08:00:06.644Z,4708
2016-10-07T08:00:47.191Z,4688
2016-10-07T08:01:27.726Z,4568
2016-10-07T08:02:08.276Z,4400
2016-10-07T08:02:48.810Z,4208
2016-10-07T08:03:29.350Z,4028
2016-10-07T08:04:09.889Z,3852
2016-10-07T08:04:50.436Z,3696
2016-10-07T08:05:30.985Z,3752
2016-10-07T08:06:11.526Z,3828
2016-10-07T08:06:52.066Z,4004
2016-10-07T08:07:32.603Z,4256
2016-10-07T08:08:13.153Z,4612
2016-10-07T08:08:53.688Z,5124
2016-10-07T08:09:34.234Z,5668
2016-10-07T08:10:14.767Z,6172
2016-10-07T08:10:55.379Z,6504
2016-10-07T08:11:35.944Z,6652
2016-10-07T08:12:16.486Z,6540
2016-10-07T08:12:57.025Z,6276
2016-10-07T08:13:37.563Z,5936
2016-10-07T08:14:18.117Z,5516
2016-10-07T08:14:58.653Z,5112
2016-10-07T08:15:39.191Z,4664
2016-10-07T08:16:19.742Z,4344
2016-10-07T08:17:00.265Z,4084
2016-10-07T08:17:40.808Z,3772
2016-10-07T08:18:21.353Z,3416
2016-10-07T08:19:01.900Z,2996
2016-10-07T08:19:42.442Z,2636
2016-10-07T08:20:22.975Z,2448
2016-10-07T08:21:03.535Z,2424
2016-10-07T08:21:44.071Z,2488
2016-10-07T08:22:24.617Z,2780
2016-10-07T08:23:05.152Z,3252
2016-10-07T08:23:45.671Z,3832
2016-10-07T08:24:26.217Z,4380
2016-10-07T08:25:06.792Z,4944
2016-10-07T08:25:47.275Z,5492
2016-10-07T08:26:27.822Z,5896
2016-10-07T08:27:08.364Z,6200
2016-10-07T08:27:48.902Z,6384
2016-10-07T08:28:29.442Z,6440
2016-10-07T08:29:09.981Z,6584
2016-10-07T08:29:50.520Z,6780
2016-10-07T08:30:31.063Z,6704
2016-10-07T08:31:11.613Z,6464
2016-10-07T08:31:52.156Z,6260
2016-10-07T08:32:32.695Z,6216
2016-10-07T08:33:13.229Z,6048
2016-10-07T08:33:53.756Z,5864
2016-10-07T08:34:34.289Z,5792
2016-10-07T08:35:14.830Z,5740
2016-10-07T08:35:55.372Z,5760
2016-10-07T08:36:35.921Z,5924
2016-10-07T08:37:16.458Z,6180
2016-10-07T08:37:57.000Z,6208
2016-10-07T08:38:37.540Z,6124
2016-10-07T08:39:18.099Z,6116
2016-10-07T08:39:58.644Z,5968
2016-10-07T08:40:39.185Z,5392
2016-10-07T08:41:19.734Z,4768
2016-10-07T08:42:00.281Z,4584
2016-10-07T08:42:40.799Z,4876
2016-10-07T08:43:21.334Z,5256
2016-10-07T08:44:01.874Z,5568
2016-10-07T08:44:42.410Z,5612
2016-10-07T08:45:22.948Z,5304
2016-10-07T08:46:03.489Z,4888
2016-10-07T08:46:44.018Z,4600
2016-10-07T08:47:24.571Z,4348
2016-10-07T08:48:05.117Z,4152
2016-10-07T08:48:45.652Z,4176
2016-10-07T08:49:26.194Z,4584
2016-10-07T08:50:06.739Z,5052
2016-10-07T08:50:47.280Z,5304
2016-10-07T08:51:27.830Z,5168
2016-10-07T08:52:08.370Z,4776
2016-10-07T08:52:48.916Z,4256
2016-10-07T08:53:29.461Z,4032
2016-10-07T08:54:10.007Z,4208
2016-10-07T08:54:50.549Z,4620
2016-10-07T08:55:31.100Z,4892
2016-10-07T08:56:11.648Z,5028
2016-10-07T08:56:52.192Z,5152
2016-10-07T08:57:32.732Z,5116
2016-10-07T08:58:13.270Z,4784
2016-10-07T08:58:53.812Z,4436
2016-10-07T08:59:34.355Z,4380
2016-10-07T09:00:14.893Z,4380
2016-10-07T09:00:55.440Z,4540
2016-10-07T09:01:35.990Z,4604
2016-10-07T09:02:16.540Z,4628
2016-10-07T09:02:57.111Z,4572
2016-10-07T09:03:37.648Z,4384
2016-10-07T09:04:18.198Z,4168
2016-10-07T09:04:58.744Z,3976
2016-10-07T09:05:39.289Z,3724
2016-10-07T09:06:19.835Z,3548
2016-10-07T09:07:00.364Z,3696
2016-10-07T09:07:40.914Z,4008
2016-10-07T09:08:21.479Z,4204
2016-10-07T09:09:02.023Z,4304
2016-10-07T09:09:42.563Z,4392
2016-10-07T09:10:23.114Z,4332
2016-10-07T09:11:03.666Z,4120
2016-10-07T09:11:44.214Z,4188
2016-10-07T09:12:24.764Z,4280
2016-10-07T09:13:05.310Z,4332
2016-10-07T09:13:45.852Z,4372
2016-10-07T09:14:26.386Z,4504
2016-10-07T09:15:06.928Z,4496
2016-10-07T09:15:47.465Z,4252
2016-10-07T09:16:28.013Z,3720
2016-10-07T09:17:08.557Z,3396
2016-10-07T09:17:49.104Z,3324
2016-10-07T09:18:29.645Z,3452
2016-10-07T09:19:10.195Z,3600
2016-10-07T09:19:50.740Z,3804
2016-10-07T09:20:31.284Z,4024
2016-10-07T09:21:11.824Z,4220
2016-10-07T09:21:52.369Z,4288
2016-10-07T09:22:32.905Z,4388
2016-10-07T09:23:13.436Z,4588
2016-10-07T09:23:53.976Z,4848
2016-10-07T09:24:34.519Z,5052
2016-10-07T09:25:15.065Z,5132
2016-10-07T09:25:55.613Z,5092
2016-10-07T09:26:36.153Z,5040
2016-10-07T09:27:16.685Z,5144
2016-10-07T09:27:57.244Z,5324
2016-10-07T09:28:37.782Z,5508
2016-10-07T09:29:18.329Z,5568
2016-10-07T09:29:58.876Z,5588
2016-10-07T09:30:39.426Z,5664
2016-10-07T09:31:19.971Z,5744
2016-10-07T09:32:00.499Z,5820
2016-10-07T09:32:41.046Z,5880
2016-10-07T09:33:21.589Z,5928
2016-10-07T09:34:02.126Z,5904
2016-10-07T09:34:42.675Z,5764
2016-10-07T09:35:23.225Z,5564
2016-10-07T09:36:03.770Z,5272
2016-10-07T09:36:44.313Z,4932
2016-10-07T09:37:24.862Z,4676
2016-10-07T09:38:05.412Z,4520
2016-10-07T09:38:45.953Z,4416
2016-10-07T09:39:26.497Z,4356
2016-10-07T09:40:07.040Z,4284
2016-10-07T09:40:47.591Z,4220
2016-10-07T09:41:28.139Z,4164
2016-10-07T09:42:08.702Z,4144
2016-10-07T09:42:49.248Z,4108
2016-10-07T09:43:29.794Z,4120
2016-10-07T09:44:10.340Z,4176
2016-10-07T09:44:50.876Z,4260
2016-10-07T09:45:31.405Z,4244
2016-10-07T09:46:11.954Z,4004
2016-10-07T09:46:52.490Z,3760
2016-10-07T09:47:33.040Z,3584
2016-10-07T09:48:13.581Z,3488
2016-10-07T09:48:54.135Z,3388
2016-10-07T09:49:34.684Z,3356
2016-10-07T09:50:15.218Z,3360
2016-10-07T09:50:55.754Z,3400